Alpha, Minnesota
Current Conditions -  °F | °C
As of 10:33 PM on Wednesday 26 Nov 2014 (Local Time) from KMJQ Reporting Station
Overcast Overcast  
Wind Chill: -8°   Ceiling: 7500
Heat Index:   Visibility: 10mi
Dew Point:   Wind: 15mph
Humidity: 73%   Direction: 320°NW
Pressure: 30.39"   Gusts: NA
Location:  43.64°N, 94.87°W
Report Text: KMJQ 270433Z AUTO 32013KT 10SM OVC075 M13/M17 A3039 RMK AO2
Loading
Personal Weather Stations






























Interactive Weather Map New forecast layout! Learn more

10-Day Weather Forecast

Advertisements
Track Severe Weather on mobile